Time;durP1;ratioP1;P1;durP2;ratioP2;P2;SDS_P1;SDS_P2;PMS_P1;PMS_P2;Temp;Humidity;BMP_temperature;BMP_pressure;BME280_temperature;BME280_humidity;BME280_pressure;Samples;Min_cycle;Max_cycle;Signal;HPM_P1;HPM_P2
2022/08/18 00:01:39;;;;;;;8.68;5.32;;;;;;;23.62;70.75;95255.41;4893214;29;20969;-82
2022/08/18 00:04:06;;;;;;;7.40;5.30;;;;;;;23.55;71.39;95254.09;4900800;29;20266;-82
2022/08/18 00:06:34;;;;;;;5.95;5.45;;;;;;;23.54;71.75;95255.16;4899724;29;20231;-82
2022/08/18 00:09:03;;;;;;;6.13;5.53;;;;;;;23.61;70.61;95248.56;4900980;29;20203;-82
2022/08/18 00:11:31;;;;;;;5.43;4.93;;;;;;;23.64;70.66;95253.31;4889854;29;20580;-82
2022/08/18 00:13:58;;;;;;;5.68;5.28;;;;;;;23.70;69.98;95246.19;4893587;29;20667;-82
2022/08/18 00:16:24;;;;;;;5.40;4.80;;;;;;;23.66;70.15;95248.56;4893760;29;20759;-82
2022/08/18 00:18:51;;;;;;;7.90;5.30;;;;;;;23.69;70.92;95255.13;4886726;29;20231;-82
2022/08/18 00:21:18;;;;;;;5.13;4.63;;;;;;;23.64;70.49;95257.78;4880615;29;20208;-82
2022/08/18 00:23:45;;;;;;;5.30;4.80;;;;;;;23.53;71.06;95250.94;4881677;29;20302;-83
2022/08/18 00:26:12;;;;;;;5.60;5.10;;;;;;;23.49;71.71;95241.97;4895442;29;20310;-83
2022/08/18 00:28:38;;;;;;;5.32;4.80;;;;;;;23.49;72.11;95245.41;4898879;29;20203;-82
2022/08/18 00:31:06;;;;;;;5.35;4.93;;;;;;;23.41;72.13;95251.22;4884261;29;20232;-82
2022/08/18 00:33:32;;;;;;;5.53;4.95;;;;;;;23.39;71.57;95259.34;4886437;29;20203;-82
2022/08/18 00:35:58;;;;;;;4.88;4.47;;;;;;;23.43;71.70;95257.00;4895957;29;20228;-82
2022/08/18 00:38:25;;;;;;;5.15;4.50;;;;;;;23.45;71.35;95270.66;4899252;29;20203;-82
2022/08/18 00:40:55;;;;;;;4.85;4.50;;;;;;;23.39;71.54;95271.69;4885445;29;20223;-82
2022/08/18 00:43:26;;;;;;;5.25;4.75;;;;;;;23.37;71.70;95264.09;4880246;29;20207;-82
2022/08/18 00:45:52;;;;;;;5.22;4.63;;;;;;;23.47;70.78;95252.00;4892754;29;20693;-82
2022/08/18 00:48:19;;;;;;;5.18;4.78;;;;;;;23.45;70.85;95259.34;4891266;29;20258;-82
2022/08/18 00:50:51;;;;;;;5.65;5.15;;;;;;;23.35;71.72;95247.78;4885923;29;20207;-82
2022/08/18 00:53:22;;;;;;;4.65;4.25;;;;;;;23.35;71.67;95239.91;4879786;29;20683;-82
2022/08/18 00:55:50;;;;;;;4.82;4.38;;;;;;;23.37;71.08;95234.38;4889562;29;20325;-82
2022/08/18 00:58:24;;;;;;;5.05;4.63;;;;;;;23.34;71.71;95225.19;4894383;29;20227;-82
2022/08/18 01:00:51;;;;;;;4.72;4.32;;;;;;;23.30;71.45;95232.03;4878867;29;20252;-82
2022/08/18 01:03:20;;;;;;;5.25;4.75;;;;;;;23.33;70.26;95259.63;4885543;29;20207;-82
2022/08/18 01:05:53;;;;;;;5.03;4.53;;;;;;;23.30;70.71;95274.06;4898318;29;20738;-82
2022/08/18 01:08:19;;;;;;;5.13;4.63;;;;;;;23.28;71.10;95278.03;4895853;29;20291;-82
2022/08/18 01:10:45;;;;;;;5.75;4.55;;;;;;;23.15;71.74;95296.91;4880375;29;20204;-82
2022/08/18 01:13:12;;;;;;;4.90;4.50;;;;;;;23.27;70.81;95279.88;4881869;29;20203;-82
2022/08/18 01:15:40;;;;;;;4.82;4.07;;;;;;;23.26;71.45;95264.38;4897801;29;20671;-82
2022/08/18 01:23:49;;;;;;;4.80;4.40;;;;;;;23.19;71.39;95279.59;4892790;29;20290;-82
2022/08/18 01:26:16;;;;;;;4.45;4.03;;;;;;;23.00;72.47;95290.63;4890364;29;20714;-82
2022/08/18 01:28:45;;;;;;;5.82;4.72;;;;;;;22.87;72.98;95274.59;4893815;29;20262;-82
2022/08/18 01:31:28;;;;;;;5.63;4.68;;;;;;;22.92;71.99;95275.38;4878331;29;20287;-82
2022/08/18 01:33:56;;;;;;;6.20;5.13;;;;;;;22.88;72.98;95274.34;4883842;29;20223;-82
2022/08/18 01:36:23;;;;;;;5.45;4.95;;;;;;;22.78;73.41;95269.06;4897305;29;20739;-82
2022/08/18 01:38:52;;;;;;;5.43;4.93;;;;;;;22.88;72.46;95260.41;4881052;29;20203;-82
2022/08/18 01:41:21;;;;;;;5.30;4.90;;;;;;;22.91;72.61;95273.00;4891972;29;20203;-82
2022/08/18 01:43:49;;;;;;;5.13;4.65;;;;;;;22.78;73.00;95274.31;4897250;29;20226;-82
2022/08/18 01:46:18;;;;;;;5.00;4.60;;;;;;;22.66;73.50;95264.03;4884658;29;20684;-82
2022/08/18 01:48:47;;;;;;;5.20;4.70;;;;;;;22.68;72.74;95254.06;4881308;29;20229;-82
2022/08/18 01:51:13;;;;;;;5.20;4.80;;;;;;;22.75;72.00;95254.56;4896927;29;20210;-82
2022/08/18 01:53:39;;;;;;;5.18;4.78;;;;;;;22.71;72.29;95255.34;4896306;29;20203;-82
2022/08/18 01:56:08;;;;;;;5.07;4.57;;;;;;;22.78;71.83;95253.31;4896803;29;20255;-82
2022/08/18 01:58:36;;;;;;;5.82;4.90;;;;;;;22.84;71.76;95248.84;4892950;29;20227;-82
2022/08/18 02:01:04;;;;;;;5.03;4.63;;;;;;;22.84;71.62;95252.28;4888837;29;20735;-82
2022/08/18 02:03:34;;;;;;;4.90;4.40;;;;;;;22.80;71.81;95250.41;4896168;29;20199;-82
2022/08/18 02:06:04;;;;;;;5.60;4.88;;;;;;;22.74;71.65;95244.34;4897244;29;20237;-82
2022/08/18 02:08:31;;;;;;;5.20;4.80;;;;;;;22.70;71.89;95254.59;4894066;29;20203;-82
2022/08/18 02:10:58;;;;;;;5.40;4.90;;;;;;;22.69;71.72;95246.97;4888031;29;20643;-82
2022/08/18 02:13:26;;;;;;;4.88;4.45;;;;;;;22.58;71.39;95246.16;4881815;29;20286;-82
2022/08/18 02:15:52;;;;;;;4.40;4.10;;;;;;;22.46;72.55;95239.56;4877911;29;20307;-82
2022/08/18 02:18:20;;;;;;;5.05;4.55;;;;;;;22.49;72.60;95239.06;4889662;29;20255;-82
2022/08/18 02:20:47;;;;;;;4.85;4.45;;;;;;;22.52;72.05;95249.81;4885399;29;20730;-82
2022/08/18 02:23:14;;;;;;;4.90;4.50;;;;;;;22.58;71.83;95256.66;4884143;29;20196;-82
2022/08/18 02:25:42;;;;;;;5.13;4.63;;;;;;;22.65;71.33;95251.16;4884851;29;20329;-82
2022/08/18 02:28:09;;;;;;;4.57;4.18;;;;;;;22.61;71.33;95239.59;4897636;29;20202;-82
2022/08/18 02:30:37;;;;;;;4.65;4.25;;;;;;;22.61;71.48;95240.38;4889660;29;20223;-82
2022/08/18 02:33:04;;;;;;;4.72;4.32;;;;;;;22.63;70.79;95229.63;4879112;29;20242;-82
2022/08/18 02:35:30;;;;;;;4.63;4.22;;;;;;;22.61;70.84;95243.00;4893878;29;20293;-82
2022/08/18 02:37:58;;;;;;;5.43;4.70;;;;;;;22.56;71.16;95245.63;4886869;29;20207;-82
2022/08/18 02:40:25;;;;;;;5.75;4.30;;;;;;;22.60;70.77;95248.53;4887060;29;20344;-82
2022/08/18 02:42:53;;;;;;;5.35;4.22;;;;;;;22.59;70.84;95245.09;4901221;29;20258;-82
2022/08/18 02:45:19;;;;;;;4.55;4.25;;;;;;;22.60;70.41;95245.91;4896345;29;20524;-82
2022/08/18 02:47:52;;;;;;;4.57;4.10;;;;;;;22.60;70.64;95235.41;4882336;29;20207;-82
2022/08/18 02:50:19;;;;;;;5.00;4.60;;;;;;;22.65;70.24;95227.53;4885030;29;20278;-82
2022/08/18 02:52:46;;;;;;;4.68;4.18;;;;;;;22.59;70.17;95218.88;4900363;29;20211;-82
2022/08/18 02:55:13;;;;;;;4.45;4.05;;;;;;;22.57;70.88;95214.91;4896897;29;20227;-82
2022/08/18 02:57:42;;;;;;;4.43;4.07;;;;;;;22.51;70.97;95218.59;4881483;29;20687;-82
2022/08/18 03:00:11;;;;;;;4.60;4.20;;;;;;;22.46;71.36;95223.84;4881464;29;20226;-82
2022/08/18 03:02:38;;;;;;;4.40;4.00;;;;;;;22.46;70.89;95227.25;4884991;29;20207;-82
2022/08/18 03:05:06;;;;;;;4.65;4.25;;;;;;;22.48;71.08;95233.03;4882689;29;20302;-82
2022/08/18 03:07:33;;;;;;;4.68;4.28;;;;;;;22.50;70.80;95219.66;4881839;29;20290;-82
2022/08/18 03:09:59;;;;;;;5.05;4.20;;;;;;;22.48;70.84;95225.16;4899041;29;20203;-82
2022/08/18 03:12:26;;;;;;;4.60;4.20;;;;;;;22.44;70.98;95231.97;4896110;29;20259;-82
2022/08/18 03:14:52;;;;;;;4.50;4.20;;;;;;;22.50;70.42;95224.91;4882147;29;20298;-82
2022/08/18 03:17:18;;;;;;;4.55;4.15;;;;;;;22.48;70.58;95221.75;4880894;29;20234;-82
2022/08/18 03:19:45;;;;;;;4.40;4.03;;;;;;;22.49;70.43;95225.94;4894490;29;20255;-82
2022/08/18 03:22:13;;;;;;;4.53;4.22;;;;;;;22.45;70.25;95215.19;4918124;29;20202;-82
2022/08/18 03:24:39;;;;;;;4.78;4.28;;;;;;;22.39;70.99;95211.75;4914612;29;20254;-81
2022/08/18 03:27:07;;;;;;;4.38;3.97;;;;;;;22.44;70.51;95210.97;4892543;29;20286;-81
2022/08/18 03:29:35;;;;;;;4.65;4.30;;;;;;;22.40;70.83;95209.91;4881464;29;20208;-82
2022/08/18 03:32:02;;;;;;;4.65;4.25;;;;;;;22.37;70.89;95203.34;4887029;29;20203;-82
2022/08/18 03:34:29;;;;;;;4.80;4.40;;;;;;;22.31;71.17;95201.78;4900145;29;20241;-82
2022/08/18 03:36:55;;;;;;;4.82;4.43;;;;;;;22.22;71.60;95189.41;4899020;29;20230;-81
2022/08/18 03:39:23;;;;;;;4.35;3.95;;;;;;;22.25;71.14;95194.94;4883166;29;20204;-82
2022/08/18 03:41:52;;;;;;;4.45;4.05;;;;;;;22.24;71.06;95192.56;4888516;29;20222;-82
2022/08/18 03:44:18;;;;;;;4.90;4.50;;;;;;;22.21;71.50;95188.63;4899455;29;20290;-81
2022/08/18 03:46:44;;;;;;;4.95;4.55;;;;;;;22.24;70.94;95190.72;4908884;29;20253;-81
2022/08/18 03:49:12;;;;;;;4.57;4.13;;;;;;;22.16;71.60;95199.09;4915048;29;20206;-82
2022/08/18 03:51:42;;;;;;;4.80;4.40;;;;;;;22.09;71.99;95193.31;4886064;29;20207;-82
2022/08/18 03:54:15;;;;;;;4.65;4.20;;;;;;;22.07;72.19;95187.53;4896182;29;20226;-82
2022/08/18 03:56:45;;;;;;;4.55;4.15;;;;;;;22.07;72.01;95192.00;4887650;29;20235;-82
2022/08/18 03:59:16;;;;;;;4.65;4.25;;;;;;;22.08;72.09;95191.75;4891684;29;20230;-82
2022/08/18 04:01:44;;;;;;;4.75;4.38;;;;;;;21.99;72.47;95185.38;4889132;29;20308;-82
2022/08/18 04:04:14;;;;;;;5.18;4.68;;;;;;;22.10;72.07;95202.75;4896447;29;20231;-82
2022/08/18 04:06:44;;;;;;;4.50;3.90;;;;;;;22.20;71.21;95204.63;4898927;29;20313;-82
2022/08/18 04:09:14;;;;;;;4.40;4.10;;;;;;;22.25;71.27;95194.94;4899548;29;20242;-82
2022/08/18 04:11:44;;;;;;;4.65;4.25;;;;;;;22.20;71.49;95197.53;4899137;29;20211;-82
2022/08/18 04:14:11;;;;;;;4.38;4.07;;;;;;;22.17;71.54;95195.44;4899105;29;20223;-82
2022/08/18 04:16:39;;;;;;;6.63;4.40;;;;;;;22.15;71.52;95199.34;4898602;29;20317;-82
2022/08/18 04:19:06;;;;;;;4.60;4.20;;;;;;;22.11;71.91;95195.69;4898126;29;20215;-82
2022/08/18 04:21:35;;;;;;;5.30;4.80;;;;;;;22.03;72.47;95184.66;4898682;29;20227;-82
2022/08/18 04:24:03;;;;;;;5.90;5.40;;;;;;;21.79;74.37;95170.38;4898449;29;20290;-82
2022/08/18 04:26:31;;;;;;;6.53;5.93;;;;;;;21.47;75.59;95170.50;4898635;29;20235;-82
2022/08/18 04:29:00;;;;;;;8.77;7.95;;;;;;;21.38;76.41;95164.94;4899134;29;20236;-82
2022/08/18 04:31:28;;;;;;;5.40;4.90;;;;;;;21.47;76.40;95167.09;4897652;29;20294;-82
2022/08/18 04:33:55;;;;;;;5.45;4.40;;;;;;;21.61;75.46;95165.56;4898488;29;20290;-82
2022/08/18 04:36:22;;;;;;;5.00;4.60;;;;;;;21.60;76.34;95177.09;4897577;29;20281;-82
2022/08/18 04:38:49;;;;;;;4.88;4.47;;;;;;;21.68;75.42;95182.66;4898672;29;20225;-82
2022/08/18 04:41:16;;;;;;;5.10;4.70;;;;;;;21.67;75.95;95181.06;4897907;29;20260;-81
2022/08/18 04:43:42;;;;;;;4.47;4.07;;;;;;;21.83;74.72;95179.28;4897746;29;20199;-82
2022/08/18 04:46:10;;;;;;;10.48;6.70;;;;;;;21.91;74.74;95178.03;4897516;29;20243;-82
2022/08/18 04:48:38;;;;;;;10.27;6.60;;;;;;;21.89;74.64;95175.66;4898618;29;20282;-81
2022/08/18 04:51:10;;;;;;;8.05;5.78;;;;;;;21.70;76.17;95177.94;4897276;29;20232;-82
2022/08/18 04:53:47;;;;;;;6.05;5.45;;;;;;;21.54;77.28;95173.69;4898234;29;20697;-82
2022/08/18 04:56:19;;;;;;;5.60;5.10;;;;;;;21.35;78.83;95189.03;4897726;29;20610;-82
2022/08/18 04:58:48;;;;;;;5.05;4.65;;;;;;;21.48;77.44;95194.88;4898275;29;20207;-82
2022/08/18 05:01:17;;;;;;;4.80;4.40;;;;;;;21.73;75.62;95200.25;4897025;29;20234;-81
2022/08/18 05:03:43;;;;;;;4.90;4.38;;;;;;;21.83;74.86;95204.72;4898313;29;20229;-82
2022/08/18 05:06:10;;;;;;;4.70;4.30;;;;;;;22.11;73.31;95206.97;4897692;29;20265;-81
2022/08/18 05:08:37;;;;;;;4.45;4.15;;;;;;;22.26;72.82;95207.00;4898278;29;20571;-82
2022/08/18 05:11:04;;;;;;;4.55;4.10;;;;;;;22.37;72.20;95205.97;4897383;29;20213;-82
2022/08/18 05:13:31;;;;;;;5.40;4.53;;;;;;;22.36;72.26;95200.97;4898067;29;20211;-82
2022/08/18 05:16:02;;;;;;;4.40;4.10;;;;;;;22.14;74.64;95197.78;4897205;29;20246;-82
2022/08/18 05:18:30;;;;;;;4.60;4.20;;;;;;;22.24;73.66;95200.44;4897947;29;20221;-82
2022/08/18 05:20:58;;;;;;;4.25;3.80;;;;;;;22.43;71.94;95200.75;4896984;29;20715;-82
2022/08/18 05:23:26;;;;;;;6.97;6.28;;;;;;;22.44;72.06;95208.34;4897739;29;20203;-82
2022/08/18 05:25:57;;;;;;;6.40;5.90;;;;;;;22.60;70.99;95206.53;4896994;29;20239;-82
2022/08/18 05:28:24;;;;;;;5.53;5.10;;;;;;;22.70;70.52;95214.44;4898040;29;20206;-82
2022/08/18 05:30:50;;;;;;;7.05;5.70;;;;;;;22.80;70.05;95237.28;4897174;29;20246;-82
2022/08/18 05:33:16;;;;;;;9.55;5.60;;;;;;;22.83;70.33;95249.91;4898159;29;20266;-82
2022/08/18 05:35:48;;;;;;;5.10;4.70;;;;;;;22.94;69.68;95254.88;4897624;29;20246;-82
2022/08/18 05:38:30;;;;;;;5.00;4.60;;;;;;;23.02;69.14;95251.75;4897796;29;21027;-82
2022/08/18 05:41:07;;;;;;;5.15;4.68;;;;;;;23.09;68.48;95249.63;4897130;29;20254;-82
2022/08/18 05:43:35;;;;;;;6.53;4.57;;;;;;;23.12;68.25;95248.31;4898061;29;20280;-82
2022/08/18 05:46:05;;;;;;;5.30;4.65;;;;;;;23.09;68.79;95238.38;4897429;29;20238;-82
2022/08/18 05:48:31;;;;;;;4.43;4.10;;;;;;;23.20;68.58;95250.44;4896936;29;20294;-82
2022/08/18 05:51:08;;;;;;;4.53;4.13;;;;;;;23.19;68.84;95248.84;4896130;29;20215;-82
2022/08/18 05:59:10;;;;;;;7.20;6.50;;;;;;;23.17;68.66;95260.69;4896815;29;20336;-82
2022/08/18 06:01:42;;;;;;;9.77;8.88;;;;;;;23.10;68.64;95255.69;4896144;29;20325;-82
2022/08/18 06:04:17;;;;;;;10.82;9.80;;;;;;;23.06;69.16;95249.41;4897235;29;20226;-82
2022/08/18 06:06:46;;;;;;;5.03;4.63;;;;;;;22.98;70.22;95258.56;4896811;29;20269;-82
2022/08/18 06:09:21;;;;;;;5.97;5.38;;;;;;;23.01;70.04;95252.81;4896446;29;20214;-82
2022/08/18 06:11:48;;;;;;;5.97;5.38;;;;;;;23.16;69.35;95262.50;4896081;29;20206;-82
2022/08/18 06:14:15;;;;;;;4.70;4.30;;;;;;;23.21;68.83;95261.72;4897006;29;20655;-82
2022/08/18 06:16:58;;;;;;;5.72;4.47;;;;;;;23.32;68.96;95260.66;4896244;29;20990;-82
2022/08/18 06:19:36;;;;;;;4.40;4.10;;;;;;;23.38;68.81;95259.63;4896592;29;20246;-82
2022/08/18 06:22:14;;;;;;;5.68;4.30;;;;;;;23.36;68.43;95265.13;4895736;29;20365;-82
2022/08/18 06:24:48;;;;;;;4.53;3.85;;;;;;;23.34;68.56;95267.22;4897150;29;20320;-82
2022/08/18 06:27:24;;;;;;;4.30;3.90;;;;;;;23.33;68.67;95256.97;4896643;29;20233;-81
2022/08/18 06:30:03;;;;;;;4.35;3.95;;;;;;;23.32;68.37;95263.28;4897057;29;20682;-82
2022/08/18 06:32:46;;;;;;;4.30;4.00;;;;;;;23.35;67.71;95257.50;4896860;29;20269;-82
2022/08/18 06:35:19;;;;;;;4.65;4.28;;;;;;;23.26;68.55;95251.22;4895477;29;20231;-82
2022/08/18 06:40:41;;;;;;;3.97;3.67;;;;;;;23.22;69.14;95260.69;4895783;29;20734;-82
2022/08/18 06:43:14;;;;;;;4.40;3.97;;;;;;;23.32;68.26;95240.44;4896865;29;20202;-82
2022/08/18 06:45:43;;;;;;;4.82;4.30;;;;;;;23.32;68.44;95235.19;4896223;29;20246;-82
2022/08/18 06:48:14;;;;;;;4.45;4.15;;;;;;;23.33;68.39;95239.38;4896801;29;20213;-82
2022/08/18 06:50:48;;;;;;;4.78;4.38;;;;;;;23.40;68.28;95244.38;4896121;29;20211;-82
2022/08/18 06:53:16;;;;;;;4.40;4.05;;;;;;;23.26;69.34;95248.59;4897158;29;20207;-82
2022/08/18 06:55:45;;;;;;;4.80;4.40;;;;;;;23.30;68.54;95244.38;4896135;29;20238;-82
2022/08/18 06:58:22;;;;;;;5.85;4.13;;;;;;;23.21;69.45;95240.72;4897181;29;20211;-82
2022/08/18 07:00:56;;;;;;;4.50;4.18;;;;;;;23.34;68.93;95227.81;4896392;29;20231;-82
2022/08/18 07:03:39;;;;;;;4.22;3.92;;;;;;;23.41;68.63;95227.56;4897871;29;20675;-82
2022/08/18 07:06:09;;;;;;;4.88;4.47;;;;;;;23.53;68.19;95227.28;4896575;29;20310;-82
2022/08/18 07:08:39;;;;;;;4.75;4.35;;;;;;;23.49;68.35;95234.88;4897972;29;20231;-82
2022/08/18 07:11:14;;;;;;;5.18;4.40;;;;;;;23.51;68.62;95229.38;4897316;29;20297;-82
2022/08/18 07:13:43;;;;;;;4.93;4.53;;;;;;;23.52;68.77;95228.34;4898580;29;20211;-83
2022/08/18 07:16:18;;;;;;;4.80;4.40;;;;;;;23.53;68.73;95222.81;4897712;29;20584;-82
2022/08/18 07:18:45;;;;;;;6.72;5.10;;;;;;;23.53;68.98;95225.44;4897653;29;20214;-82
2022/08/18 07:21:24;;;;;;;5.20;4.80;;;;;;;23.49;69.55;95236.72;4896955;29;20230;-82
2022/08/18 07:24:00;;;;;;;5.80;5.30;;;;;;;23.47;69.85;95230.97;4898193;29;20221;-82
2022/08/18 07:26:27;;;;;;;5.57;5.18;;;;;;;23.57;68.92;95239.66;4900238;29;20241;-82
2022/08/18 07:28:53;;;;;;;6.07;5.60;;;;;;;23.62;68.30;95231.75;4900761;29;20210;-82
2022/08/18 07:31:33;;;;;;;12.07;11.07;;;;;;;23.55;68.59;95220.72;4900233;29;20285;-82
2022/08/18 07:34:04;;;;;;;8.18;7.45;;;;;;;23.62;68.25;95215.97;4900952;29;20234;-82
2022/08/18 07:36:35;;;;;;;8.25;6.72;;;;;;;23.78;67.39;95219.34;4899982;29;20305;-82
2022/08/18 07:39:11;;;;;;;6.45;5.75;;;;;;;23.95;67.31;95205.88;4900895;29;20253;-82
2022/08/18 07:41:49;;;;;;;7.28;6.68;;;;;;;24.11;66.84;95213.41;4900060;29;20223;-82
2022/08/18 07:44:24;;;;;;;7.45;6.10;;;;;;;24.31;66.62;95224.94;4899915;29;20226;-82
2022/08/18 07:46:59;;;;;;;6.22;5.50;;;;;;;24.55;64.93;95217.16;4899724;29;20773;-82
2022/08/18 07:49:29;;;;;;;5.82;5.30;;;;;;;24.43;65.01;95210.41;4900007;29;20214;-82
2022/08/18 07:52:05;;;;;;;5.18;4.78;;;;;;;24.60;64.14;95214.50;4899706;29;20209;-82
2022/08/18 07:54:47;;;;;;;5.22;4.63;;;;;;;24.82;63.75;95219.38;4900564;29;20297;-82
2022/08/18 07:57:21;;;;;;;5.45;5.05;;;;;;;24.65;64.28;95223.16;4901642;29;20286;-82
2022/08/18 07:59:53;;;;;;;5.68;5.20;;;;;;;24.56;64.66;95211.63;4902049;29;20255;-82
2022/08/18 08:02:32;;;;;;;5.57;5.07;;;;;;;24.85;64.48;95219.59;4902016;29;20294;-82
2022/08/18 08:05:07;;;;;;;5.13;4.72;;;;;;;25.18;62.96;95228.59;4882716;29;20227;-82
2022/08/18 08:07:44;;;;;;;5.32;4.82;;;;;;;25.38;62.44;95222.34;4883578;29;20231;-82
2022/08/18 08:10:28;;;;;;;5.50;5.00;;;;;;;25.28;61.81;95228.50;4882690;29;20276;-82
2022/08/18 08:13:02;;;;;;;22.48;20.48;;;;;;;25.20;62.24;95223.03;4882933;29;20203;-82
2022/08/18 08:15:37;;;;;;;11.23;10.25;;;;;;;25.21;62.22;95221.97;4882375;29;20239;-82
2022/08/18 08:18:12;;;;;;;7.45;6.85;;;;;;;25.23;61.87;95236.44;4883340;29;20727;-82
2022/08/18 08:20:45;;;;;;;6.30;5.78;;;;;;;25.41;61.68;95234.94;4899758;29;20214;-82
2022/08/18 08:23:22;;;;;;;7.43;6.05;;;;;;;25.52;61.40;95243.56;4900599;29;20222;-82
2022/08/18 08:26:02;;;;;;;7.28;6.68;;;;;;;25.55;60.42;95243.81;4900312;29;20294;-82
2022/08/18 08:28:41;;;;;;;6.53;5.85;;;;;;;25.57;59.91;95244.31;4900633;29;20211;-82
2022/08/18 08:31:10;;;;;;;5.68;5.20;;;;;;;25.57;60.37;95238.25;4899970;29;20195;-82
2022/08/18 08:33:45;;;;;;;6.07;5.57;;;;;;;25.58;60.26;95231.91;4900694;29;20235;-82
2022/08/18 08:36:16;;;;;;;5.45;4.95;;;;;;;25.61;59.90;95216.28;4898589;29;20259;-82
2022/08/18 08:38:45;;;;;;;5.82;5.22;;;;;;;25.69;59.63;95207.81;4900350;29;20203;-82
2022/08/18 08:41:24;;;;;;;5.90;5.50;;;;;;;25.74;59.53;95201.69;4898429;29;20282;-82
2022/08/18 08:44:00;;;;;;;5.97;5.43;;;;;;;25.81;59.53;95191.56;4900176;29;20206;-82
2022/08/18 08:46:30;;;;;;;6.43;5.82;;;;;;;25.97;58.66;95195.63;4899127;29;20285;-82
2022/08/18 08:49:01;;;;;;;5.78;5.30;;;;;;;26.03;59.21;95206.88;4899552;29;20640;-82
2022/08/18 08:51:34;;;;;;;6.22;5.63;;;;;;;26.03;58.13;95207.66;4899217;29;20218;-83
2022/08/18 08:54:06;;;;;;;5.80;5.30;;;;;;;26.02;58.28;95205.31;4899356;29;20238;-82
2022/08/18 08:56:42;;;;;;;5.78;5.22;;;;;;;26.22;55.30;95196.34;4899393;29;20307;-82
2022/08/18 08:59:12;;;;;;;6.38;5.20;;;;;;;26.48;55.10;95198.41;4899728;29;20206;-82
2022/08/18 09:01:45;;;;;;;5.57;5.00;;;;;;;26.80;54.40;95191.59;4899029;29;20274;-82
2022/08/18 09:04:23;;;;;;;5.22;4.78;;;;;;;27.00;52.66;95174.66;4899321;29;20726;-82
2022/08/18 09:07:04;;;;;;;5.65;4.80;;;;;;;27.15;51.86;95171.75;4898738;29;20298;-83
2022/08/18 09:09:48;;;;;;;5.25;4.75;;;;;;;27.34;51.43;95176.97;4899383;29;20202;-83
2022/08/18 09:12:43;;;;;;;5.80;5.28;;;;;;;27.48;49.89;95169.84;4899156;29;20210;-83
2022/08/18 09:15:26;;;;;;;6.40;5.20;;;;;;;27.50;49.66;95178.28;4898536;29;20277;-82
2022/08/18 09:18:13;;;;;;;6.72;5.70;;;;;;;27.65;49.98;95171.94;4898847;29;20255;-82
2022/08/18 09:20:53;;;;;;;5.75;5.03;;;;;;;27.89;49.19;95174.38;4879610;29;20230;-82
2022/08/18 09:23:22;;;;;;;5.75;5.25;;;;;;;27.93;49.50;95175.34;4880071;29;20238;-82
2022/08/18 09:25:52;;;;;;;5.00;4.60;;;;;;;28.12;48.66;95189.22;4880021;29;20641;-83
2022/08/18 09:28:23;;;;;;;5.25;4.75;;;;;;;28.24;48.37;95192.19;4880237;29;20207;-83
2022/08/18 09:31:16;;;;;;;6.43;4.60;;;;;;;28.44;47.96;95170.56;4879423;29;20682;-83
2022/08/18 09:33:57;;;;;;;5.40;5.00;;;;;;;28.61;47.03;95172.56;4880483;29;20211;-82
2022/08/18 09:36:40;;;;;;;5.10;4.70;;;;;;;28.79;47.21;95165.53;4880176;29;20239;-83
2022/08/18 09:42:11;;;;;;;5.13;4.72;;;;;;;29.13;46.60;95164.97;4879335;29;20237;-82
2022/08/18 09:45:01;;;;;;;6.45;4.80;;;;;;;29.30;46.27;95169.59;4879783;29;20227;-82
2022/08/18 09:48:01;;;;;;;7.13;5.13;;;;;;;29.44;46.00;95171.09;4879579;29;20231;-83
2022/08/18 09:50:52;;;;;;;5.57;4.88;;;;;;;29.42;45.91;95161.88;4933321;23;20229;-82
2022/08/18 09:53:52;;;;;;;4.93;4.53;;;;;;;29.38;45.09;95160.91;4935126;29;20313;-83
2022/08/18 09:56:57;;;;;;;5.10;4.70;;;;;;;29.34;45.05;95162.59;4934390;29;20312;-83
2022/08/18 09:59:54;;;;;;;5.47;5.00;;;;;;;29.29;45.42;95160.84;4935183;29;20221;-81
2022/08/18 10:03:10;;;;;;;5.45;4.95;;;;;;;29.30;46.30;95156.31;4934150;29;20225;-84
2022/08/18 10:05:37;;;;;;;5.15;4.75;;;;;;;28.98;46.42;95168.00;4915248;29;20242;-84
2022/08/18 10:08:46;;;;;;;5.18;4.78;;;;;;;28.74;45.71;95177.03;4915566;29;20575;-84
2022/08/18 10:11:35;;;;;;;5.05;4.65;;;;;;;28.86;46.28;95179.19;4912739;29;20234;-82
2022/08/18 10:14:18;;;;;;;5.90;5.40;;;;;;;28.60;45.62;95173.66;4915419;29;20226;-83
2022/08/18 10:16:54;;;;;;;5.75;5.25;;;;;;;28.45;46.37;95177.44;4915340;29;20293;-85
2022/08/18 10:19:32;;;;;;;7.07;5.07;;;;;;;28.65;47.39;95194.75;4926441;29;20225;-82
2022/08/18 10:22:05;;;;;;;5.97;5.47;;;;;;;28.74;46.31;95186.84;4933690;29;20225;-82
2022/08/18 10:24:36;;;;;;;6.20;5.32;;;;;;;28.98;46.96;95184.72;4934184;29;20575;-82
2022/08/18 10:27:05;;;;;;;6.68;6.00;;;;;;;29.09;45.85;95185.22;4933689;28;20233;-84
2022/08/18 10:30:03;;;;;;;6.70;6.10;;;;;;;29.31;45.07;95181.75;4934217;29;20221;-83
2022/08/18 10:32:46;;;;;;;14.93;13.55;;;;;;;29.50;44.62;95183.13;4934017;29;20219;-84
2022/08/18 10:35:52;;;;;;;17.83;16.40;;;;;;;29.65;44.52;95179.28;4933313;28;20822;-83
2022/08/18 10:38:35;;;;;;;6.05;5.63;;;;;;;29.74;44.12;95171.38;4934353;29;20205;-83
2022/08/18 10:41:05;;;;;;;6.07;5.57;;;;;;;29.76;43.50;95172.63;4933446;29;20312;-83
2022/08/18 10:43:39;;;;;;;5.90;5.40;;;;;;;29.70;44.74;95154.47;4933833;29;20764;-83
2022/08/18 10:46:16;;;;;;;6.40;5.72;;;;;;;29.75;43.32;95157.00;4933429;28;20308;-84
2022/08/18 10:48:44;;;;;;;6.05;5.47;;;;;;;29.72;43.15;95160.28;4934389;29;20296;-84
2022/08/18 10:51:19;;;;;;;5.68;5.28;;;;;;;29.85;43.85;95157.50;4933156;29;20233;-85
2022/08/18 10:53:53;;;;;;;6.13;5.53;;;;;;;29.97;44.30;95154.25;4933726;29;20257;-82
2022/08/18 10:56:31;;;;;;;6.00;5.50;;;;;;;29.99;44.55;95152.09;4933855;28;20233;-84
2022/08/18 10:59:09;;;;;;;5.78;5.28;;;;;;;30.13;43.93;95149.31;4934965;29;20205;-84
2022/08/18 11:01:55;;;;;;;5.90;5.40;;;;;;;30.19;43.24;95148.84;4937063;29;20223;-82
2022/08/18 11:04:29;;;;;;;5.22;4.82;;;;;;;30.18;43.36;95135.88;4937791;29;20205;-85
2022/08/18 11:07:02;;;;;;;6.47;5.38;;;;;;;29.95;44.07;95134.41;4937132;29;20664;-85
2022/08/18 11:09:31;;;;;;;5.70;5.30;;;;;;;29.66;44.25;95134.94;4937678;29;20664;-84
2022/08/18 11:12:01;;;;;;;9.98;8.88;;;;;;;29.37;45.04;95132.81;4937286;29;20201;-84
2022/08/18 11:14:55;;;;;;;6.70;6.20;;;;;;;29.16;44.43;95132.56;4937478;29;20674;-85
2022/08/18 11:17:38;;;;;;;6.88;6.15;;;;;;;29.34;44.49;95118.28;4937701;29;20293;-82
2022/08/18 11:20:09;;;;;;;5.50;5.10;;;;;;;29.26;44.67;95116.38;4936921;29;20225;-84
2022/08/18 11:22:36;;;;;;;6.30;5.43;;;;;;;29.20;44.35;95126.34;4937167;29;20914;-84
2022/08/18 11:25:19;;;;;;;6.50;5.88;;;;;;;28.88;44.32;95116.03;4937110;29;20868;-85
2022/08/18 11:27:47;;;;;;;6.25;5.75;;;;;;;28.41;44.87;95094.34;4937235;29;20225;-85
2022/08/18 11:30:14;;;;;;;5.75;5.30;;;;;;;28.46;45.51;95085.53;4936751;29;20221;-83
2022/08/18 11:32:42;;;;;;;5.20;4.80;;;;;;;28.62;45.88;95094.66;4936702;29;20770;-84
2022/08/18 11:35:15;;;;;;;5.10;4.60;;;;;;;28.86;46.03;95086.41;4936843;28;20197;-83
2022/08/18 11:37:47;;;;;;;5.85;5.35;;;;;;;29.01;44.76;95080.72;4936986;29;20210;-84
2022/08/18 11:40:28;;;;;;;5.70;5.20;;;;;;;29.21;45.11;95077.53;4937584;29;20330;-84
2022/08/18 11:42:59;;;;;;;5.65;5.15;;;;;;;29.30;44.58;95090.00;4937325;29;20292;-84
2022/08/18 11:45:32;;;;;;;5.85;5.35;;;;;;;29.29;44.80;95080.50;4936724;28;20226;-85
2022/08/18 11:48:01;;;;;;;5.82;5.32;;;;;;;29.40;44.41;95064.03;4936434;29;20202;-83
2022/08/18 11:50:31;;;;;;;7.78;5.75;;;;;;;29.47;43.79;95053.75;4935825;29;20233;-81
2022/08/18 11:53:13;;;;;;;5.55;5.03;;;;;;;29.44;44.69;95046.41;4936796;29;20240;-83
2022/08/18 11:55:40;;;;;;;5.43;5.03;;;;;;;29.59;44.38;95045.19;4936762;28;20281;-83
2022/08/18 11:58:06;;;;;;;5.30;4.90;;;;;;;29.79;44.27;95022.59;4936482;29;20670;-84
2022/08/18 12:00:43;;;;;;;5.70;5.30;;;;;;;29.86;42.84;95013.06;4935918;29;20226;-84
2022/08/18 12:03:17;;;;;;;5.70;5.20;;;;;;;29.81;43.20;95007.91;4936527;29;20222;-84
2022/08/18 12:05:50;;;;;;;11.73;10.63;;;;;;;29.84;43.45;94988.69;4935575;29;20260;-85
2022/08/18 12:08:20;;;;;;;11.25;10.23;;;;;;;29.81;43.85;94996.53;4936178;29;20210;-84
2022/08/18 12:10:47;;;;;;;7.80;7.20;;;;;;;29.76;43.07;94994.78;4934387;29;20649;-85
2022/08/18 12:13:22;;;;;;;6.03;5.53;;;;;;;29.83;43.51;94986.34;4936277;29;20198;-83
2022/08/18 12:16:08;;;;;;;5.90;5.40;;;;;;;29.81;42.65;94989.34;4935199;29;20752;-82